createdAt,value
2018-09-04T00:00:08.412Z,19.10
2018-09-04T00:01:08.419Z,19.10
2018-09-04T00:02:08.391Z,19.06
2018-09-04T00:03:08.384Z,19.04
2018-09-04T00:04:08.374Z,19.06
2018-09-04T00:05:08.374Z,18.99
2018-09-04T00:06:08.346Z,19.04
2018-09-04T00:07:08.337Z,19.02
2018-09-04T00:08:08.335Z,19.11
2018-09-04T00:09:08.315Z,19.06
2018-09-04T00:10:08.306Z,19.00
2018-09-04T00:11:08.294Z,18.98
2018-09-04T00:12:08.368Z,19.04
2018-09-04T00:13:08.275Z,18.98
2018-09-04T00:14:08.260Z,19.02
2018-09-04T00:15:08.248Z,19.11
2018-09-04T00:16:08.239Z,19.11
2018-09-04T00:17:08.227Z,19.13
2018-09-04T00:18:08.228Z,19.10
2018-09-04T00:19:08.207Z,19.08
2018-09-04T00:20:08.212Z,19.10
2018-09-04T00:21:08.184Z,19.07
2018-09-04T00:22:08.189Z,19.08
2018-09-04T00:23:08.165Z,19.10
2018-09-04T00:24:08.150Z,19.13
2018-09-04T00:25:08.143Z,19.10
2018-09-04T00:26:08.127Z,19.11
2018-09-04T00:27:08.125Z,19.22
2018-09-04T00:28:08.129Z,19.11
2018-09-04T00:29:08.098Z,19.18
2018-09-04T00:30:08.120Z,19.08
2018-09-04T00:31:08.077Z,19.13
2018-09-04T00:32:08.068Z,19.26
2018-09-04T00:33:08.058Z,19.08
2018-09-04T00:34:08.043Z,19.16
2018-09-04T00:35:08.035Z,19.11
2018-09-04T00:36:08.038Z,19.25
2018-09-04T00:37:08.011Z,19.19
2018-09-04T00:38:07.996Z,19.19
2018-09-04T00:39:07.990Z,19.19
2018-09-04T00:40:07.989Z,19.18
2018-09-04T00:41:07.965Z,19.18
2018-09-04T00:42:07.956Z,19.08
2018-09-04T00:43:07.946Z,19.13
2018-09-04T00:44:07.933Z,19.11
2018-09-04T00:45:07.944Z,19.06
2018-09-04T00:46:07.913Z,19.02
2018-09-04T00:47:07.901Z,19.10
2018-09-04T00:48:07.888Z,19.18
2018-09-04T00:49:07.878Z,19.06
2018-09-04T00:50:07.892Z,19.08
2018-09-04T00:51:07.856Z,19.11
2018-09-04T00:52:07.846Z,19.08
2018-09-04T00:53:07.834Z,19.07
2018-09-04T00:54:07.824Z,19.11
2018-09-04T00:55:07.811Z,19.13
2018-09-04T00:56:07.816Z,19.06
2018-09-04T00:57:07.791Z,19.13
2018-09-04T00:58:07.783Z,19.13
2018-09-04T00:59:07.827Z,19.13
2018-09-04T01:00:07.760Z,19.00
2018-09-04T01:01:07.767Z,19.11
2018-09-04T01:02:07.734Z,19.10
2018-09-04T01:03:07.745Z,19.06
2018-09-04T01:04:07.714Z,19.13
2018-09-04T01:05:07.703Z,19.00
2018-09-04T01:06:07.725Z,19.02
2018-09-04T01:07:07.685Z,19.00
2018-09-04T01:08:07.670Z,19.02
2018-09-04T01:09:07.660Z,19.00
2018-09-04T01:10:07.648Z,18.98
2018-09-04T01:11:07.637Z,19.08
2018-09-04T01:12:07.645Z,19.08
2018-09-04T01:13:07.619Z,18.94
2018-09-04T01:14:07.603Z,18.91
2018-09-04T01:15:07.591Z,18.92
2018-09-04T01:16:07.580Z,18.95
2018-09-04T01:17:07.583Z,18.90
2018-09-04T01:18:07.558Z,18.91
2018-09-04T01:19:07.551Z,18.90
2018-09-04T01:20:07.549Z,18.98
2018-09-04T01:21:07.528Z,18.88
2018-09-04T01:22:07.514Z,18.95
2018-09-04T01:23:07.504Z,18.88
2018-09-04T01:24:07.506Z,18.91
2018-09-04T01:25:07.500Z,18.91
2018-09-04T01:26:07.486Z,18.90
2018-09-04T01:27:07.464Z,18.90
2018-09-04T01:28:07.450Z,18.94
2018-09-04T01:29:07.438Z,18.91
2018-09-04T01:30:07.426Z,18.90
2018-09-04T01:31:07.414Z,18.88
2018-09-04T01:32:07.427Z,18.87
2018-09-04T01:33:07.394Z,18.90
2018-09-04T01:34:07.380Z,18.84
2018-09-04T01:35:07.380Z,18.82
2018-09-04T01:36:07.362Z,18.84
2018-09-04T01:37:07.347Z,18.87
2018-09-04T01:38:07.360Z,18.84
2018-09-04T01:39:07.323Z,18.81
2018-09-04T01:40:07.317Z,18.73
2018-09-04T01:41:07.302Z,18.75
2018-09-04T01:42:07.294Z,18.82
2018-09-04T01:43:07.280Z,18.82
2018-09-04T01:44:07.285Z,18.82
2018-09-04T01:45:07.276Z,18.82
2018-09-04T01:46:07.249Z,18.80
2018-09-04T01:47:07.238Z,18.87
2018-09-04T01:48:07.234Z,18.78
2018-09-04T01:49:07.214Z,18.78
2018-09-04T01:50:07.205Z,18.88
2018-09-04T01:51:07.234Z,18.78
2018-09-04T01:52:07.205Z,18.84
2018-09-04T01:53:07.175Z,18.78
2018-09-04T01:54:07.163Z,18.75
2018-09-04T01:55:07.150Z,18.70
2018-09-04T01:56:07.137Z,18.85
2018-09-04T01:57:07.143Z,18.75
2018-09-04T01:58:07.117Z,18.81
2018-09-04T01:59:07.106Z,18.80
2018-09-04T02:00:07.096Z,18.72
2018-09-04T02:01:07.084Z,18.70
2018-09-04T02:02:07.084Z,18.82
2018-09-04T02:03:07.079Z,18.80
2018-09-04T02:04:07.050Z,18.87
2018-09-04T02:05:07.037Z,18.75
2018-09-04T02:06:07.028Z,18.82
2018-09-04T02:07:07.020Z,18.82
2018-09-04T02:08:07.007Z,18.80
2018-09-04T02:09:07.012Z,18.82
2018-09-04T02:10:06.983Z,18.82
2018-09-04T02:11:06.972Z,18.80
2018-09-04T02:12:06.974Z,18.81
2018-09-04T02:13:06.974Z,18.80
2018-09-04T02:14:06.942Z,18.81
2018-09-04T02:15:06.927Z,18.78
2018-09-04T02:16:06.918Z,18.82
2018-09-04T02:17:06.908Z,18.76
2018-09-04T02:18:06.894Z,18.78
2018-09-04T02:19:06.895Z,18.72
2018-09-04T02:20:06.873Z,18.66
2018-09-04T02:21:06.864Z,18.67
2018-09-04T02:22:06.852Z,18.66
2018-09-04T02:23:06.842Z,18.69
2018-09-04T02:24:06.847Z,18.73
2018-09-04T02:25:06.822Z,18.73
2018-09-04T02:26:06.809Z,18.73
2018-09-04T02:27:06.814Z,18.69
2018-09-04T02:28:06.784Z,18.69
2018-09-04T02:29:06.774Z,18.75
2018-09-04T02:30:06.765Z,18.72
2018-09-04T02:31:06.755Z,18.65
2018-09-04T02:32:06.743Z,18.70
2018-09-04T02:33:06.804Z,18.73
2018-09-04T02:34:06.722Z,18.67
2018-09-04T02:35:06.711Z,18.67
2018-09-04T02:36:06.701Z,18.69
2018-09-04T02:37:06.687Z,18.70
2018-09-04T02:38:06.726Z,18.65
2018-09-04T02:39:06.675Z,18.65
2018-09-04T02:40:06.654Z,18.60
2018-09-04T02:41:06.641Z,18.62
2018-09-04T02:42:06.632Z,18.60
2018-09-04T02:43:06.623Z,18.63
2018-09-04T02:44:06.651Z,18.70
2018-09-04T02:45:06.601Z,18.72
2018-09-04T02:46:06.592Z,18.72
2018-09-04T02:47:06.581Z,18.65
2018-09-04T02:48:06.570Z,18.72
2018-09-04T02:49:06.559Z,18.70
2018-09-04T02:50:06.572Z,18.72
2018-09-04T02:51:06.537Z,18.75
2018-09-04T02:52:06.527Z,18.73
2018-09-04T02:53:06.515Z,18.75
2018-09-04T02:54:06.503Z,18.66
2018-09-04T02:55:06.493Z,18.69
2018-09-04T02:56:06.491Z,18.65
2018-09-04T02:57:06.467Z,18.66
2018-09-04T02:58:06.458Z,18.72
2018-09-04T02:59:06.448Z,18.73
2018-09-04T03:00:06.453Z,18.75
2018-09-04T03:01:06.427Z,18.75
2018-09-04T03:02:06.423Z,18.69
2018-09-04T03:03:06.400Z,18.75
2018-09-04T03:04:06.394Z,18.73
2018-09-04T03:05:06.408Z,18.78
2018-09-04T03:06:06.372Z,18.70
2018-09-04T03:07:06.359Z,18.58
2018-09-04T03:08:06.347Z,18.55
2018-09-04T03:09:06.341Z,18.58
2018-09-04T03:10:06.327Z,18.58
2018-09-04T03:11:06.327Z,18.62
2018-09-04T03:12:06.306Z,18.48
2018-09-04T03:13:06.295Z,18.57
2018-09-04T03:14:06.282Z,18.55
2018-09-04T03:15:06.272Z,18.47
2018-09-04T03:16:06.278Z,18.57
2018-09-04T03:17:06.248Z,18.52
2018-09-04T03:18:06.246Z,18.55
2018-09-04T03:19:06.241Z,18.52
2018-09-04T03:20:06.216Z,18.57
2018-09-04T03:21:06.208Z,18.52
2018-09-04T03:22:06.209Z,18.48
2018-09-04T03:23:06.248Z,18.45
2018-09-04T03:24:06.184Z,18.55
2018-09-04T03:25:06.163Z,18.39
2018-09-04T03:26:06.155Z,18.48
2018-09-04T03:27:06.154Z,18.45
2018-09-04T03:28:06.147Z,18.41
2018-09-04T03:29:06.142Z,18.48
2018-09-04T03:30:06.110Z,18.39
2018-09-04T03:31:06.099Z,18.45
2018-09-04T03:32:06.091Z,18.45
2018-09-04T03:33:06.091Z,18.47
2018-09-04T03:34:06.080Z,18.50
2018-09-04T03:35:06.053Z,18.45
2018-09-04T03:36:06.047Z,18.39
2018-09-04T03:37:06.066Z,18.42
2018-09-04T03:38:06.019Z,18.37
2018-09-04T03:39:06.015Z,18.30
2018-09-04T03:40:06.019Z,18.32
2018-09-04T03:41:05.990Z,18.32
2018-09-04T03:42:05.978Z,18.30
2018-09-04T03:43:05.968Z,18.25
2018-09-04T03:44:05.953Z,18.21
2018-09-04T03:45:05.942Z,18.23
2018-09-04T03:46:05.947Z,18.18
2018-09-04T03:47:05.929Z,18.21
2018-09-04T03:48:05.909Z,18.21
2018-09-04T03:49:05.898Z,18.23
2018-09-04T03:50:05.918Z,18.23
2018-09-04T03:51:05.878Z,18.17
2018-09-04T03:52:05.898Z,18.23
2018-09-04T03:53:05.859Z,18.21
2018-09-04T03:54:05.844Z,18.23
2018-09-04T03:55:05.831Z,18.30
2018-09-04T03:56:05.843Z,18.26
2018-09-04T03:57:05.815Z,18.23
2018-09-04T03:58:05.801Z,18.21
2018-09-04T03:59:05.787Z,18.20
2018-09-04T04:00:05.802Z,18.29
2018-09-04T04:01:05.775Z,18.15
2018-09-04T04:02:05.753Z,18.23
2018-09-04T04:03:05.743Z,18.25
2018-09-04T04:04:05.733Z,18.26
2018-09-04T04:05:05.725Z,18.26
2018-09-04T04:06:05.723Z,18.23
2018-09-04T04:07:05.701Z,18.25
2018-09-04T04:08:05.690Z,18.25
2018-09-04T04:09:05.676Z,18.21
2018-09-04T04:10:05.667Z,18.26
2018-09-04T04:11:05.668Z,18.20
2018-09-04T04:12:05.748Z,18.23
2018-09-04T04:13:05.631Z,18.18
2018-09-04T04:14:05.622Z,18.21
2018-09-04T04:15:05.614Z,18.18
2018-09-04T04:16:05.636Z,18.26
2018-09-04T04:17:05.597Z,18.18
2018-09-04T04:18:05.578Z,18.25
2018-09-04T04:19:05.568Z,18.17
2018-09-04T04:20:05.556Z,18.20
2018-09-04T04:21:05.545Z,18.21
2018-09-04T04:22:05.543Z,18.20
2018-09-04T04:23:05.523Z,18.20
2018-09-04T04:24:05.513Z,18.17
2018-09-04T04:25:05.501Z,18.25
2018-09-04T04:26:05.502Z,18.23
2018-09-04T04:27:05.517Z,18.20
2018-09-04T04:28:05.467Z,18.20
2018-09-04T04:29:05.455Z,18.20
2018-09-04T04:30:05.448Z,18.18
2018-09-04T04:31:05.432Z,18.14
2018-09-04T04:32:05.422Z,18.26
2018-09-04T04:33:05.518Z,18.21
2018-09-04T04:34:05.398Z,18.21
2018-09-04T04:35:05.390Z,18.20
2018-09-04T04:36:05.375Z,18.25
2018-09-04T04:37:05.376Z,18.18
2018-09-04T04:38:05.351Z,18.20
2018-09-04T04:39:05.347Z,18.20
2018-09-04T04:40:05.382Z,18.26
2018-09-04T04:41:05.324Z,18.21
2018-09-04T04:42:05.319Z,18.20
2018-09-04T04:43:05.296Z,18.21
2018-09-04T04:44:05.285Z,18.23
2018-09-04T04:45:05.276Z,18.26
2018-09-04T04:46:05.264Z,18.21
2018-09-04T04:47:05.271Z,18.25
2018-09-04T04:48:05.256Z,18.21
2018-09-04T04:49:05.235Z,18.20
2018-09-04T04:50:05.231Z,18.23
2018-09-04T04:51:05.208Z,18.23
2018-09-04T04:52:05.200Z,18.20
2018-09-04T04:53:05.189Z,18.20
2018-09-04T04:54:05.175Z,18.26
2018-09-04T04:55:05.177Z,18.18
2018-09-04T04:56:05.151Z,18.25
2018-09-04T04:57:05.140Z,18.20
2018-09-04T04:58:05.133Z,18.18
2018-09-04T04:59:05.120Z,18.21
2018-09-04T05:00:05.130Z,18.20
2018-09-04T05:01:05.099Z,18.21
2018-09-04T05:02:05.087Z,18.23
2018-09-04T05:03:05.073Z,18.21
2018-09-04T05:04:05.066Z,18.21
2018-09-04T05:05:05.070Z,18.21
2018-09-04T05:06:05.058Z,18.21
2018-09-04T05:07:05.030Z,18.15
2018-09-04T05:08:05.017Z,18.20
2018-09-04T05:09:05.009Z,18.23
2018-09-04T05:10:04.994Z,18.20
2018-09-04T05:11:05.065Z,18.26
2018-09-04T05:12:04.990Z,18.23
2018-09-04T05:13:04.963Z,18.27
2018-09-04T05:14:04.949Z,18.15
2018-09-04T05:15:04.938Z,18.23
2018-09-04T05:16:04.952Z,18.18
2018-09-04T05:17:04.919Z,18.21
2018-09-04T05:18:04.904Z,18.23
2018-09-04T05:19:04.896Z,18.20
2018-09-04T05:20:04.882Z,18.23
2018-09-04T05:21:04.870Z,18.21
2018-09-04T05:22:04.874Z,18.26
2018-09-04T05:23:04.849Z,18.29
2018-09-04T05:24:04.837Z,18.27
2018-09-04T05:25:04.829Z,18.33
2018-09-04T05:26:04.819Z,18.30
2018-09-04T05:27:04.819Z,18.32
2018-09-04T05:28:04.795Z,18.32
2018-09-04T05:29:04.786Z,18.33
2018-09-04T05:30:04.771Z,18.35
2018-09-04T05:31:04.762Z,18.32
2018-09-04T05:32:04.767Z,18.27
2018-09-04T05:33:04.744Z,18.32
2018-09-04T05:34:04.727Z,18.44
2018-09-04T05:35:04.730Z,18.44
2018-09-04T05:36:04.707Z,18.41
2018-09-04T05:37:04.712Z,18.45
2018-09-04T05:38:04.698Z,18.47
2018-09-04T05:39:04.678Z,18.39
2018-09-04T05:40:04.669Z,18.51
2018-09-04T05:41:04.654Z,18.44
2018-09-04T05:42:04.656Z,18.45
2018-09-04T05:43:04.633Z,18.52
2018-09-04T05:44:04.634Z,18.54
2018-09-04T05:45:04.614Z,18.54
2018-09-04T05:46:04.599Z,18.55
2018-09-04T05:47:04.587Z,18.63
2018-09-04T05:48:04.588Z,18.57
2018-09-04T05:49:04.572Z,18.62
2018-09-04T05:50:04.557Z,18.55
2018-09-04T05:51:04.546Z,18.65
2018-09-04T05:52:04.533Z,18.70
2018-09-04T05:53:04.538Z,18.70
2018-09-04T05:54:04.526Z,18.67
2018-09-04T05:55:04.557Z,18.75
2018-09-04T05:56:04.493Z,18.76
2018-09-04T05:57:04.482Z,18.76
2018-09-04T05:58:04.467Z,18.67
2018-09-04T05:59:04.494Z,18.82
2018-09-04T06:00:04.448Z,18.85
2018-09-04T06:01:04.438Z,18.91
2018-09-04T06:02:04.426Z,18.85
2018-09-04T06:03:04.419Z,18.92
2018-09-04T06:04:04.402Z,18.92
2018-09-04T06:05:04.409Z,18.98
2018-09-04T06:06:04.381Z,19.04
2018-09-04T06:07:04.369Z,19.02
2018-09-04T06:08:04.360Z,19.00
2018-09-04T06:09:04.351Z,19.10
2018-09-04T06:10:04.340Z,19.07
2018-09-04T06:11:04.372Z,19.16
2018-09-04T06:12:04.316Z,19.22
2018-09-04T06:13:04.307Z,19.31
2018-09-04T06:14:04.293Z,19.33
2018-09-04T06:15:04.285Z,19.39
2018-09-04T06:16:04.271Z,19.33
2018-09-04T06:17:04.284Z,19.32
2018-09-04T06:18:04.252Z,19.46
2018-09-04T06:19:04.237Z,19.51
2018-09-04T06:20:04.261Z,19.48
2018-09-04T06:21:04.220Z,19.58
2018-09-04T06:22:04.211Z,19.56
2018-09-04T06:23:04.213Z,19.55
2018-09-04T06:24:04.184Z,19.65
2018-09-04T06:25:04.187Z,19.62
2018-09-04T06:26:04.165Z,19.73
2018-09-04T06:27:04.166Z,19.76
2018-09-04T06:28:04.144Z,19.74
2018-09-04T06:29:04.130Z,19.77
2018-09-04T06:30:04.121Z,19.80
2018-09-04T06:31:04.133Z,19.80
2018-09-04T06:32:04.099Z,19.87
2018-09-04T06:33:04.088Z,19.87
2018-09-04T06:34:04.097Z,19.92
2018-09-04T06:35:04.067Z,19.94
2018-09-04T06:36:04.056Z,19.94
2018-09-04T06:37:04.081Z,19.87
2018-09-04T06:38:04.036Z,19.95
2018-09-04T06:39:04.022Z,20.01
2018-09-04T06:40:04.009Z,20.03
2018-09-04T06:41:03.998Z,20.03
2018-09-04T06:42:03.989Z,20.02
2018-09-04T06:43:03.992Z,20.06
2018-09-04T06:44:03.980Z,20.10
2018-09-04T06:45:03.971Z,20.01
2018-09-04T06:46:03.943Z,20.06
2018-09-04T06:47:03.932Z,20.08
2018-09-04T06:48:03.925Z,20.05
2018-09-04T06:49:03.926Z,20.03
2018-09-04T06:50:03.914Z,20.13
2018-09-04T06:51:03.888Z,20.10
2018-09-04T06:52:03.877Z,20.18
2018-09-04T06:53:03.869Z,20.11
2018-09-04T06:54:03.858Z,20.21
2018-09-04T06:55:03.859Z,20.23
2018-09-04T06:56:03.833Z,20.20
2018-09-04T06:57:03.825Z,20.26
2018-09-04T06:58:03.812Z,20.24
2018-09-04T06:59:03.803Z,20.24
2018-09-04T07:00:03.808Z,20.23
2018-09-04T07:01:03.795Z,20.24
2018-09-04T07:02:03.768Z,20.29
2018-09-04T07:03:03.760Z,20.38
2018-09-04T07:04:03.745Z,20.35
2018-09-04T07:05:03.736Z,20.41
2018-09-04T07:06:03.765Z,20.32
2018-09-04T07:07:03.733Z,20.38
2018-09-04T07:08:03.705Z,20.42
2018-09-04T07:09:03.692Z,20.51
2018-09-04T07:10:03.686Z,20.51
2018-09-04T07:11:03.686Z,20.57
2018-09-04T07:12:03.657Z,20.59
2018-09-04T07:13:03.649Z,20.59
2018-09-04T07:14:03.639Z,20.61
2018-09-04T07:15:03.654Z,20.72
2018-09-04T07:16:03.659Z,20.59
2018-09-04T07:17:03.614Z,20.55
2018-09-04T07:18:03.593Z,20.54
2018-09-04T07:19:03.581Z,20.61
2018-09-04T07:20:03.575Z,20.61
2018-09-04T07:21:03.561Z,20.61
2018-09-04T07:22:03.563Z,20.54
2018-09-04T07:23:03.539Z,20.54
2018-09-04T07:24:03.546Z,20.51
2018-09-04T07:25:03.533Z,20.61
2018-09-04T07:26:03.506Z,20.67
2018-09-04T07:27:03.538Z,20.72
2018-09-04T07:28:03.487Z,20.73
2018-09-04T07:29:03.475Z,20.72
2018-09-04T07:30:03.465Z,20.84
2018-09-04T07:31:03.452Z,20.91
2018-09-04T07:32:03.440Z,20.95
2018-09-04T07:33:03.442Z,20.98
2018-09-04T07:34:03.419Z,20.91
2018-09-04T07:35:03.408Z,20.94
2018-09-04T07:36:03.397Z,20.95
2018-09-04T07:37:03.410Z,21.06
2018-09-04T07:38:03.374Z,21.06
2018-09-04T07:39:03.363Z,21.12
2018-09-04T07:40:03.352Z,21.21
2018-09-04T07:41:03.341Z,21.27
2018-09-04T07:42:03.395Z,21.19
2018-09-04T07:43:03.335Z,21.24
2018-09-04T07:44:03.311Z,21.31
2018-09-04T07:45:03.302Z,21.42
2018-09-04T07:46:03.289Z,21.35
2018-09-04T07:47:03.275Z,21.28
2018-09-04T07:48:03.284Z,21.34
2018-09-04T07:49:03.280Z,21.38
2018-09-04T07:50:03.248Z,21.42
2018-09-04T07:51:03.235Z,21.37
2018-09-04T07:52:03.223Z,21.38
2018-09-04T07:53:03.210Z,21.44
2018-09-04T07:54:03.206Z,21.50
2018-09-04T07:55:03.205Z,21.52
2018-09-04T07:56:03.179Z,21.65
2018-09-04T07:57:03.178Z,21.69
2018-09-04T07:58:03.159Z,21.79
2018-09-04T07:59:03.148Z,21.68
2018-09-04T08:00:03.155Z,21.72
2018-09-04T08:01:03.191Z,21.83
2018-09-04T08:02:03.112Z,21.90
2018-09-04T08:03:03.108Z,21.91
2018-09-04T08:04:03.096Z,21.98
2018-09-04T08:05:03.099Z,22.05
2018-09-04T08:06:03.073Z,22.06
2018-09-04T08:07:03.061Z,22.07
2018-09-04T08:08:03.051Z,22.12
2018-09-04T08:09:03.053Z,22.17
2018-09-04T08:10:03.038Z,22.18
2018-09-04T08:11:03.019Z,22.25
2018-09-04T08:12:03.008Z,22.39
2018-09-04T08:13:02.995Z,22.49
2018-09-04T08:14:02.996Z,22.73
2018-09-04T08:15:02.973Z,22.77
2018-09-04T08:16:02.963Z,22.77
2018-09-04T08:17:02.951Z,22.80
2018-09-04T08:18:02.937Z,22.90
2018-09-04T08:19:02.953Z,23.05
2018-09-04T08:20:02.916Z,22.95
2018-09-04T08:21:02.909Z,23.19
2018-09-04T08:22:02.897Z,23.32
2018-09-04T08:23:02.888Z,23.50
2018-09-04T08:24:02.884Z,23.69
2018-09-04T08:25:02.873Z,23.79
2018-09-04T08:26:02.920Z,23.97
2018-09-04T08:27:02.844Z,24.02
2018-09-04T08:28:02.850Z,24.21
2018-09-04T08:29:02.823Z,24.27
2018-09-04T08:30:02.824Z,24.40
2018-09-04T08:31:02.805Z,24.53
2018-09-04T08:32:02.789Z,24.58
2018-09-04T08:33:02.817Z,24.62
2018-09-04T08:34:02.768Z,24.64
2018-09-04T08:35:02.759Z,24.46
2018-09-04T08:36:02.748Z,24.35
2018-09-04T08:37:02.736Z,24.22
2018-09-04T08:38:02.725Z,24.30
2018-09-04T08:39:02.741Z,24.27
2018-09-04T08:40:02.724Z,24.27
2018-09-04T08:41:02.697Z,24.34
2018-09-04T08:42:02.681Z,24.39
2018-09-04T08:43:02.674Z,24.49
2018-09-04T08:44:02.660Z,24.60
2018-09-04T08:45:02.675Z,24.58
2018-09-04T08:46:02.634Z,24.62
2018-09-04T08:47:02.635Z,24.57
2018-09-04T08:48:02.616Z,24.46
2018-09-04T08:49:02.613Z,24.40
2018-09-04T08:50:02.602Z,24.37
2018-09-04T08:51:02.602Z,24.35
2018-09-04T08:52:02.577Z,24.22
2018-09-04T08:53:02.565Z,24.25
2018-09-04T08:54:02.554Z,24.06
2018-09-04T08:55:02.547Z,24.00
2018-09-04T08:56:02.549Z,23.95
2018-09-04T08:57:02.541Z,23.95
2018-09-04T08:58:02.514Z,23.84
2018-09-04T08:59:02.506Z,23.90
2018-09-04T09:00:02.501Z,23.95
2018-09-04T09:01:02.482Z,23.94
2018-09-04T09:02:02.467Z,24.06
2018-09-04T09:03:02.482Z,24.22
2018-09-04T09:04:02.449Z,24.30
2018-09-04T09:05:02.440Z,24.43
2018-09-04T09:06:02.426Z,24.61
2018-09-04T09:07:02.414Z,24.71
2018-09-04T09:08:02.402Z,24.96
2018-09-04T09:09:02.414Z,25.15
2018-09-04T09:10:02.388Z,25.20
2018-09-04T09:11:02.372Z,25.35
2018-09-04T09:12:02.361Z,25.51
2018-09-04T09:13:02.393Z,25.55
2018-09-04T09:14:02.340Z,25.50
2018-09-04T09:15:02.332Z,25.52
2018-09-04T09:16:02.322Z,25.55
2018-09-04T09:17:02.310Z,25.64
2018-09-04T09:18:02.297Z,25.61
2018-09-04T09:19:02.303Z,25.72
2018-09-04T09:20:02.280Z,25.79
2018-09-04T09:21:02.267Z,25.97
2018-09-04T09:22:02.256Z,26.01
2018-09-04T09:23:02.258Z,26.01
2018-09-04T09:24:02.283Z,25.98
2018-09-04T09:25:02.225Z,25.99
2018-09-04T09:26:02.216Z,26.17
2018-09-04T09:27:02.206Z,26.29
2018-09-04T09:28:02.196Z,26.21
2018-09-04T09:29:02.186Z,26.17
2018-09-04T09:30:02.252Z,26.25
2018-09-04T09:31:02.163Z,26.33
2018-09-04T09:32:02.153Z,26.36
2018-09-04T09:33:02.145Z,26.51
2018-09-04T09:34:02.134Z,26.48
2018-09-04T09:35:02.139Z,26.48
2018-09-04T09:36:02.126Z,26.39
2018-09-04T09:37:02.170Z,26.47
2018-09-04T09:38:02.092Z,26.57
2018-09-04T09:39:02.082Z,26.45
2018-09-04T09:40:02.081Z,26.54
2018-09-04T09:41:02.100Z,26.58
2018-09-04T09:42:02.051Z,26.65
2018-09-04T09:43:02.041Z,26.60
2018-09-04T09:44:02.028Z,26.67
2018-09-04T09:45:02.017Z,26.66
2018-09-04T09:46:02.006Z,26.73
2018-09-04T09:47:02.014Z,26.76
2018-09-04T09:48:01.987Z,26.69
2018-09-04T09:49:01.976Z,26.69
2018-09-04T09:50:01.969Z,26.75
2018-09-04T09:51:01.955Z,26.99
2018-09-04T09:52:01.960Z,26.97
2018-09-04T09:53:01.984Z,27.10
2018-09-04T09:54:01.999Z,27.13
2018-09-04T09:55:01.914Z,27.19
2018-09-04T09:56:01.926Z,27.09
2018-09-04T09:57:01.911Z,27.00
2018-09-04T09:58:01.883Z,26.95
2018-09-04T09:59:01.873Z,27.10
2018-09-04T10:00:01.887Z,27.14
2018-09-04T10:01:01.858Z,27.29
2018-09-04T10:02:01.873Z,27.34
2018-09-04T10:03:01.832Z,27.31
2018-09-04T10:04:01.920Z,27.07
2018-09-04T10:05:01.812Z,27.13
2018-09-04T10:06:01.803Z,26.95
2018-09-04T10:07:01.809Z,27.06
2018-09-04T10:08:01.823Z,27.12
2018-09-04T10:09:01.772Z,27.22
2018-09-04T10:10:01.798Z,27.22
2018-09-04T10:11:01.749Z,27.10
2018-09-04T10:12:01.742Z,27.00
2018-09-04T10:13:01.744Z,26.92
2018-09-04T10:14:01.763Z,27.06
2018-09-04T10:15:01.709Z,27.25
2018-09-04T10:16:01.700Z,27.36
2018-09-04T10:17:01.689Z,27.31
2018-09-04T10:18:01.695Z,27.55
2018-09-04T10:19:01.670Z,27.63
2018-09-04T10:20:01.787Z,27.43
2018-09-04T10:21:01.646Z,27.41
2018-09-04T10:22:01.639Z,27.55
2018-09-04T10:23:01.654Z,27.85
2018-09-04T10:24:01.615Z,28.00
2018-09-04T10:25:01.605Z,28.27
2018-09-04T10:26:01.598Z,28.51
2018-09-04T10:27:01.585Z,28.66
2018-09-04T10:28:01.580Z,28.89
2018-09-04T10:29:01.582Z,28.89
2018-09-04T10:30:01.555Z,29.11
2018-09-04T10:31:01.546Z,29.12
2018-09-04T10:32:01.535Z,29.09
2018-09-04T10:33:01.526Z,29.12
2018-09-04T10:34:01.526Z,29.18
2018-09-04T10:35:01.508Z,29.36
2018-09-04T10:36:01.497Z,29.36
2018-09-04T10:37:01.496Z,29.43
2018-09-04T10:38:01.476Z,29.41
2018-09-04T10:39:01.506Z,29.30
2018-09-04T10:40:01.458Z,29.21
2018-09-04T10:41:01.443Z,29.00
2018-09-04T10:42:01.453Z,28.88
2018-09-04T10:43:01.423Z,28.90
2018-09-04T10:44:01.418Z,28.86
2018-09-04T10:45:01.419Z,28.88
2018-09-04T10:46:01.396Z,29.02
2018-09-04T10:47:01.384Z,29.15
2018-09-04T10:48:01.375Z,29.12
2018-09-04T10:49:01.389Z,29.11
2018-09-04T10:50:01.356Z,28.92
2018-09-04T10:51:01.342Z,28.71
2018-09-04T10:52:01.335Z,28.76
2018-09-04T10:53:01.321Z,28.77
2018-09-04T10:54:01.309Z,28.89
2018-09-04T10:55:01.321Z,29.00
2018-09-04T10:56:01.291Z,29.09
2018-09-04T10:57:01.282Z,29.19
2018-09-04T10:58:01.272Z,29.33
2018-09-04T10:59:01.265Z,29.42
2018-09-04T11:00:01.252Z,29.55
2018-09-04T11:01:01.251Z,29.61
2018-09-04T11:02:01.281Z,29.68
2018-09-04T11:03:01.217Z,29.71
2018-09-04T11:04:01.208Z,29.83
2018-09-04T11:05:01.197Z,29.80
2018-09-04T11:06:01.187Z,29.79
2018-09-04T11:07:01.178Z,30.08
2018-09-04T11:08:01.185Z,30.16
2018-09-04T11:09:01.174Z,30.32
2018-09-04T11:10:01.333Z,30.29
2018-09-04T11:11:01.153Z,30.39
2018-09-04T11:12:01.128Z,30.49
2018-09-04T11:13:01.115Z,30.57
2018-09-04T11:14:01.105Z,30.58
2018-09-04T11:15:01.150Z,30.54
2018-09-04T11:16:01.104Z,30.55
2018-09-04T11:17:01.075Z,30.39
2018-09-04T11:18:01.066Z,30.46
2018-09-04T11:19:01.057Z,30.58
2018-09-04T11:20:01.045Z,30.49
2018-09-04T11:21:01.052Z,30.53
2018-09-04T11:22:01.045Z,30.49
2018-09-04T11:23:01.020Z,30.39
2018-09-04T11:24:01.005Z,30.42
2018-09-04T11:25:00.995Z,30.58
2018-09-04T11:26:00.988Z,30.60
2018-09-04T11:27:00.984Z,30.76
2018-09-04T11:28:00.980Z,30.89
2018-09-04T11:29:00.960Z,30.92
2018-09-04T11:30:00.951Z,30.77
2018-09-04T11:31:00.954Z,30.73
2018-09-04T11:32:00.930Z,30.79
2018-09-04T11:33:00.940Z,30.76
2018-09-04T11:34:00.913Z,30.75
2018-09-04T11:35:00.899Z,30.57
2018-09-04T11:36:00.891Z,30.31
2018-09-04T11:37:00.881Z,30.31
2018-09-04T11:38:00.871Z,30.42
2018-09-04T11:39:00.873Z,30.46
2018-09-04T11:40:00.882Z,30.75
2018-09-04T11:41:00.838Z,30.88
2018-09-04T11:42:00.827Z,30.97
2018-09-04T11:43:00.818Z,31.19
2018-09-04T11:44:00.821Z,31.21
2018-09-04T11:45:00.800Z,31.28
2018-09-04T11:46:00.789Z,31.39
2018-09-04T11:47:00.854Z,31.34
2018-09-04T11:48:00.770Z,31.26
2018-09-04T11:49:00.777Z,31.28
2018-09-04T11:50:00.755Z,31.02
2018-09-04T11:51:00.740Z,30.86
2018-09-04T11:52:00.732Z,30.76
2018-09-04T11:53:00.746Z,30.72
2018-09-04T11:54:00.708Z,30.75
2018-09-04T11:55:00.700Z,30.89
2018-09-04T11:56:00.690Z,31.06
2018-09-04T11:57:00.686Z,31.04
2018-09-04T11:58:00.691Z,31.10
2018-09-04T11:59:00.663Z,31.21
2018-09-04T12:00:00.655Z,31.19
2018-09-04T12:01:00.644Z,31.12
2018-09-04T12:02:00.640Z,31.16
2018-09-04T12:03:00.624Z,31.19
2018-09-04T12:04:00.627Z,31.25
2018-09-04T12:05:00.614Z,31.38
2018-09-04T12:06:00.594Z,31.35
2018-09-04T12:07:00.585Z,31.39
2018-09-04T12:08:00.573Z,31.51
2018-09-04T12:09:00.580Z,31.63
2018-09-04T12:10:00.572Z,31.63
2018-09-04T12:11:00.545Z,31.65
2018-09-04T12:12:00.536Z,31.65
2018-09-04T12:13:00.604Z,31.72
2018-09-04T12:14:00.528Z,31.73
2018-09-04T12:15:00.502Z,31.80
2018-09-04T12:16:00.492Z,31.91
2018-09-04T12:17:00.501Z,31.85
2018-09-04T12:18:00.474Z,31.65
2018-09-04T12:19:00.476Z,31.57
2018-09-04T12:20:00.469Z,31.69
2018-09-04T12:21:00.619Z,31.58
2018-09-04T12:22:00.435Z,31.51
2018-09-04T12:23:00.427Z,31.31
2018-09-04T12:24:00.425Z,31.10
2018-09-04T12:25:00.407Z,31.20
2018-09-04T12:26:00.410Z,31.06
2018-09-04T12:27:00.407Z,31.04
2018-09-04T12:28:00.377Z,30.82
2018-09-04T12:29:00.365Z,30.65
2018-09-04T12:30:00.353Z,30.43
2018-09-04T12:31:00.378Z,30.47
2018-09-04T12:32:00.349Z,30.20
2018-09-04T12:33:00.333Z,30.05
2018-09-04T12:34:00.354Z,30.13
2018-09-04T12:35:00.304Z,30.04
2018-09-04T12:36:00.297Z,30.07
2018-09-04T12:37:00.323Z,30.17
2018-09-04T12:38:00.271Z,30.24
2018-09-04T12:39:00.264Z,30.37
2018-09-04T12:40:00.252Z,30.46
2018-09-04T12:41:00.243Z,30.51
2018-09-04T12:42:00.233Z,30.53
2018-09-04T12:43:00.236Z,30.42
2018-09-04T12:44:00.208Z,30.26
2018-09-04T12:45:00.201Z,30.13
2018-09-04T12:46:00.192Z,29.97
2018-09-04T12:47:00.197Z,29.89
2018-09-04T12:48:00.195Z,29.89
2018-09-04T12:49:00.160Z,29.90
2018-09-04T12:50:00.148Z,29.82
2018-09-04T12:51:00.140Z,29.71
2018-09-04T12:52:00.153Z,29.46